createdAt,value
2023-01-20T00:01:38.756Z,54.95
2023-01-20T00:04:05.758Z,54.88
2023-01-20T00:06:32.929Z,54.69
2023-01-20T00:09:01.466Z,54.65
2023-01-20T00:11:28.956Z,54.53
2023-01-20T00:13:57.404Z,54.80
2023-01-20T00:16:24.548Z,54.68
2023-01-20T00:18:51.458Z,54.38
2023-01-20T00:21:18.839Z,54.28
2023-01-20T00:23:46.940Z,54.49
2023-01-20T00:26:19.663Z,54.18
2023-01-20T00:28:47.457Z,54.62
2023-01-20T00:31:15.194Z,54.41
2023-01-20T00:33:41.987Z,54.43
2023-01-20T00:36:09.058Z,53.68
2023-01-20T00:38:36.023Z,54.62
2023-01-20T00:41:03.073Z,54.48
2023-01-20T00:43:29.637Z,54.66
2023-01-20T00:45:56.161Z,54.81
2023-01-20T00:48:22.714Z,54.84
2023-01-20T00:50:49.451Z,54.58
2023-01-20T00:53:15.876Z,53.90
2023-01-20T00:55:42.419Z,54.66
2023-01-20T00:58:08.931Z,55.01
2023-01-20T01:00:35.857Z,55.12
2023-01-20T01:03:02.763Z,55.06
2023-01-20T01:05:29.281Z,54.99
2023-01-20T01:07:55.781Z,55.33
2023-01-20T01:10:22.281Z,55.53
2023-01-20T01:12:48.816Z,55.39
2023-01-20T01:15:15.584Z,55.29
2023-01-20T01:17:44.002Z,54.39
2023-01-20T01:20:12.450Z,55.11
2023-01-20T01:22:39.268Z,55.28
2023-01-20T01:25:05.924Z,54.26
2023-01-20T01:27:32.615Z,55.26
2023-01-20T01:29:59.123Z,55.61
2023-01-20T01:32:25.679Z,55.86
2023-01-20T01:34:52.168Z,55.99
2023-01-20T01:37:18.826Z,55.70
2023-01-20T01:39:45.441Z,56.06
2023-01-20T01:42:13.347Z,56.01
2023-01-20T01:45:12.402Z,55.71
2023-01-20T01:47:57.948Z,56.03
2023-01-20T01:50:31.069Z,55.65
2023-01-20T01:52:57.846Z,55.93
2023-01-20T01:55:27.112Z,54.71
2023-01-20T01:57:56.136Z,55.66
2023-01-20T02:00:22.952Z,55.56
2023-01-20T02:02:49.536Z,54.50
2023-01-20T02:05:17.650Z,55.71
2023-01-20T02:07:47.564Z,55.50
2023-01-20T02:10:16.150Z,55.67
2023-01-20T02:12:47.331Z,55.58
2023-01-20T02:15:14.481Z,55.86
2023-01-20T02:17:53.988Z,55.43
2023-01-20T02:20:47.884Z,55.41
2023-01-20T02:23:32.553Z,55.33
2023-01-20T02:26:36.098Z,55.18
2023-01-20T02:29:14.858Z,55.57
2023-01-20T02:32:25.717Z,54.97
2023-01-20T02:34:55.754Z,55.38
2023-01-20T02:37:26.880Z,55.66
2023-01-20T02:40:13.034Z,55.74
2023-01-20T02:42:43.223Z,55.41
2023-01-20T02:45:16.240Z,55.76
2023-01-20T02:48:06.043Z,55.54
2023-01-20T02:50:43.745Z,55.69
2023-01-20T02:53:13.643Z,55.80
2023-01-20T02:55:47.296Z,55.51
2023-01-20T02:58:19.582Z,55.90
2023-01-20T03:00:58.163Z,55.66
2023-01-20T03:03:30.710Z,56.07
2023-01-20T03:06:00.563Z,55.84
2023-01-20T03:08:30.858Z,55.94
2023-01-20T03:11:04.022Z,55.90
2023-01-20T03:13:52.595Z,55.26
2023-01-20T03:16:22.469Z,55.63
2023-01-20T03:18:50.364Z,55.65
2023-01-20T03:21:17.259Z,55.35
2023-01-20T03:23:50.623Z,55.35
2023-01-20T03:26:19.666Z,55.53
2023-01-20T03:28:48.852Z,55.12
2023-01-20T03:31:18.094Z,55.19
2023-01-20T03:33:47.088Z,55.52
2023-01-20T03:36:15.411Z,55.03
2023-01-20T03:38:43.744Z,55.16
2023-01-20T03:41:24.382Z,55.00
2023-01-20T03:43:53.631Z,55.12
2023-01-20T03:46:32.635Z,55.14
2023-01-20T03:49:17.928Z,54.75
2023-01-20T03:51:54.502Z,54.65
2023-01-20T03:54:27.156Z,54.76
2023-01-20T03:56:58.112Z,54.75
2023-01-20T03:59:25.459Z,54.91
2023-01-20T04:01:54.181Z,55.16
2023-01-20T04:04:21.569Z,55.09
2023-01-20T04:06:50.879Z,54.87
2023-01-20T04:09:23.924Z,54.89
2023-01-20T04:11:50.938Z,55.16
2023-01-20T04:14:17.676Z,54.95
2023-01-20T04:16:50.242Z,54.13
2023-01-20T04:19:16.752Z,54.93
2023-01-20T04:21:48.575Z,54.82
2023-01-20T04:24:19.269Z,54.79
2023-01-20T04:26:45.832Z,54.96
2023-01-20T04:29:13.326Z,54.84
2023-01-20T04:31:39.992Z,54.48
2023-01-20T04:34:06.757Z,54.57
2023-01-20T04:36:33.245Z,54.42
2023-01-20T04:38:59.756Z,54.17
2023-01-20T04:41:26.225Z,54.05
2023-01-20T04:43:52.788Z,54.24
2023-01-20T04:46:19.649Z,54.23
2023-01-20T04:48:46.501Z,54.09
2023-01-20T04:51:13.250Z,53.96
2023-01-20T04:53:39.884Z,54.18
2023-01-20T04:56:12.086Z,54.43
2023-01-20T04:58:39.397Z,54.71
2023-01-20T05:01:05.982Z,54.83
2023-01-20T05:03:32.597Z,54.73
2023-01-20T05:05:59.100Z,54.84
2023-01-20T05:08:25.591Z,55.11
2023-01-20T05:10:52.101Z,54.95
2023-01-20T05:13:18.636Z,58.20
2023-01-20T05:15:45.292Z,61.50
2023-01-20T05:18:11.880Z,64.00
2023-01-20T05:20:38.348Z,65.79
2023-01-20T05:23:04.985Z,66.01
2023-01-20T05:25:31.504Z,66.68
2023-01-20T05:27:58.900Z,67.29
2023-01-20T05:30:25.545Z,67.79
2023-01-20T05:32:52.330Z,67.98
2023-01-20T05:35:18.906Z,65.49
2023-01-20T05:37:45.747Z,60.47
2023-01-20T05:40:12.553Z,59.90
2023-01-20T05:42:39.589Z,55.03
2023-01-20T05:45:06.953Z,52.99
2023-01-20T05:47:33.448Z,51.61
2023-01-20T05:49:59.881Z,51.34
2023-01-20T05:52:26.355Z,50.52
2023-01-20T05:54:52.809Z,50.47
2023-01-20T05:57:19.271Z,50.59
2023-01-20T05:59:47.760Z,50.35
2023-01-20T06:02:18.800Z,50.57
2023-01-20T06:04:49.046Z,50.77
2023-01-20T06:07:15.766Z,50.81
2023-01-20T06:09:42.350Z,51.47
2023-01-20T06:12:08.860Z,51.44
2023-01-20T06:14:35.308Z,51.80
2023-01-20T06:17:02.002Z,52.01
2023-01-20T06:19:28.478Z,52.47
2023-01-20T06:21:54.982Z,52.52
2023-01-20T06:24:21.442Z,52.67
2023-01-20T06:26:50.947Z,52.87
2023-01-20T06:29:17.713Z,53.17
2023-01-20T06:31:44.892Z,52.86
2023-01-20T06:34:12.140Z,53.29
2023-01-20T06:36:38.906Z,53.50
2023-01-20T06:39:05.269Z,53.14
2023-01-20T06:41:31.780Z,53.77
2023-01-20T06:43:58.290Z,53.76
2023-01-20T06:46:24.807Z,53.94
2023-01-20T06:48:51.722Z,54.22
2023-01-20T06:51:20.023Z,54.31
2023-01-20T06:53:47.299Z,54.63
2023-01-20T06:56:15.557Z,54.40
2023-01-20T06:58:42.528Z,54.48
2023-01-20T07:01:30.331Z,54.18
2023-01-20T07:03:56.909Z,53.85
2023-01-20T07:06:32.729Z,54.10
2023-01-20T07:09:00.391Z,53.78
2023-01-20T07:11:28.562Z,54.11
2023-01-20T07:13:55.020Z,54.01
2023-01-20T07:16:21.574Z,54.46
2023-01-20T07:18:50.435Z,54.70
2023-01-20T07:21:17.834Z,54.97
2023-01-20T07:23:44.578Z,54.88
2023-01-20T07:26:13.377Z,54.96
2023-01-20T07:28:40.261Z,55.12
2023-01-20T07:31:09.041Z,55.23
2023-01-20T07:33:36.829Z,55.01
2023-01-20T07:36:04.262Z,54.91
2023-01-20T07:38:31.169Z,55.28
2023-01-20T07:41:04.746Z,55.24
2023-01-20T07:43:32.046Z,55.13
2023-01-20T07:46:00.321Z,54.83
2023-01-20T07:48:28.008Z,54.57
2023-01-20T07:51:02.225Z,54.38
2023-01-20T07:53:29.616Z,54.30
2023-01-20T07:55:56.059Z,54.39
2023-01-20T07:58:22.587Z,54.96
2023-01-20T08:00:49.239Z,55.17
2023-01-20T08:03:16.400Z,55.24
2023-01-20T08:05:43.091Z,55.41
2023-01-20T08:08:09.648Z,55.65
2023-01-20T08:10:37.279Z,55.37
2023-01-20T08:13:04.003Z,55.84
2023-01-20T08:15:30.695Z,55.84
2023-01-20T08:17:58.696Z,55.79
2023-01-20T08:20:25.303Z,55.79
2023-01-20T08:22:51.856Z,56.15
2023-01-20T08:25:18.382Z,56.68
2023-01-20T08:27:47.415Z,56.74
2023-01-20T08:30:14.129Z,56.96
2023-01-20T08:32:40.662Z,57.08
2023-01-20T08:35:07.421Z,56.72
2023-01-20T08:37:36.807Z,56.77
2023-01-20T08:40:06.612Z,57.48
2023-01-20T08:42:33.157Z,57.60
2023-01-20T08:44:59.853Z,57.38
2023-01-20T08:47:26.387Z,56.21
2023-01-20T08:49:54.018Z,56.33
2023-01-20T08:52:20.600Z,55.75
2023-01-20T08:54:47.290Z,55.26
2023-01-20T08:57:15.187Z,55.64
2023-01-20T08:59:41.773Z,55.06
2023-01-20T09:02:11.970Z,54.92
2023-01-20T09:04:38.712Z,54.49
2023-01-20T09:07:05.564Z,54.85
2023-01-20T09:09:32.046Z,54.89
2023-01-20T09:11:58.618Z,54.13
2023-01-20T09:14:25.457Z,53.88
2023-01-20T09:16:51.960Z,54.31
2023-01-20T09:32:02.452Z,53.73
2023-01-20T09:34:29.649Z,52.86
2023-01-20T09:37:21.531Z,53.11
2023-01-20T09:40:06.806Z,51.99
2023-01-20T09:43:20.008Z,52.54
2023-01-20T09:46:28.396Z,51.79
2023-01-20T09:49:16.768Z,51.26
2023-01-20T09:52:15.157Z,52.01
2023-01-20T09:54:47.779Z,51.80
2023-01-20T09:57:15.064Z,50.71
2023-01-20T09:59:49.929Z,51.62
2023-01-20T10:02:28.392Z,51.68
2023-01-20T10:05:00.690Z,50.77
2023-01-20T10:08:02.132Z,51.19
2023-01-20T10:10:40.071Z,49.96
2023-01-20T10:13:10.987Z,49.37
2023-01-20T10:15:47.381Z,49.47
2023-01-20T10:18:35.411Z,48.99
2023-01-20T10:21:08.359Z,50.56
2023-01-20T10:23:49.113Z,48.37
2023-01-20T10:26:21.609Z,47.87
2023-01-20T10:28:55.660Z,48.94
2023-01-20T10:31:28.403Z,48.66
2023-01-20T10:34:01.795Z,48.15
2023-01-20T10:36:30.357Z,48.50
2023-01-20T10:39:04.509Z,48.20
2023-01-20T10:41:30.989Z,47.50
2023-01-20T10:43:59.729Z,47.55
2023-01-20T10:46:58.418Z,48.81
2023-01-20T10:49:37.117Z,48.85
2023-01-20T10:52:18.902Z,48.82
2023-01-20T10:55:07.118Z,48.09
2023-01-20T10:57:34.728Z,46.50
2023-01-20T11:00:06.807Z,46.48
2023-01-20T11:02:35.753Z,46.24
2023-01-20T11:05:16.531Z,45.91
2023-01-20T11:07:44.452Z,45.84
2023-01-20T11:10:21.839Z,46.86
2023-01-20T11:12:50.220Z,48.80
2023-01-20T11:15:22.313Z,45.80
2023-01-20T11:18:16.589Z,47.18
2023-01-20T11:21:10.817Z,46.16
2023-01-20T11:23:52.405Z,46.26
2023-01-20T11:26:22.326Z,45.27
2023-01-20T11:28:57.969Z,44.60
2023-01-20T11:31:45.516Z,46.07
2023-01-20T11:34:35.839Z,46.29
2023-01-20T11:37:05.357Z,44.76
2023-01-20T11:39:50.163Z,46.42
2023-01-20T11:42:17.958Z,44.15
2023-01-20T11:45:20.712Z,45.36
2023-01-20T11:48:00.683Z,44.71
2023-01-20T11:50:33.703Z,44.61
2023-01-20T11:53:15.915Z,45.12
2023-01-20T11:55:50.401Z,43.63
2023-01-20T11:58:20.259Z,43.41
2023-01-20T12:00:47.234Z,43.17
2023-01-20T12:03:32.830Z,43.93
2023-01-20T12:06:02.902Z,42.61
2023-01-20T12:08:51.230Z,42.92
2023-01-20T12:11:27.530Z,42.39
2023-01-20T12:14:20.719Z,44.09
2023-01-20T12:16:55.369Z,42.60
2023-01-20T12:19:30.010Z,41.96
2023-01-20T12:22:03.246Z,42.10
2023-01-20T12:25:04.403Z,41.64
2023-01-20T12:27:31.123Z,41.43
2023-01-20T12:30:03.364Z,42.12
2023-01-20T12:32:31.644Z,41.17
2023-01-20T12:34:58.150Z,41.55
2023-01-20T12:37:55.097Z,43.63
2023-01-20T12:40:21.500Z,41.28
2023-01-20T12:43:03.157Z,42.18
2023-01-20T12:45:37.384Z,41.17
2023-01-20T12:48:20.841Z,42.05
2023-01-20T12:51:01.553Z,41.65
2023-01-20T12:54:05.013Z,43.12
2023-01-20T12:56:40.534Z,41.78
2023-01-20T12:59:36.741Z,42.16
2023-01-20T13:02:37.772Z,42.82
2023-01-20T13:05:48.838Z,41.96
2023-01-20T13:08:24.632Z,42.17
2023-01-20T13:11:26.223Z,41.21
2023-01-20T13:14:16.047Z,42.45
2023-01-20T13:17:08.391Z,41.29
2023-01-20T13:19:41.518Z,40.19
2023-01-20T13:22:12.603Z,40.34
2023-01-20T13:24:43.388Z,40.41
2023-01-20T13:27:12.161Z,40.06
2023-01-20T13:29:53.450Z,40.55
2023-01-20T13:32:43.737Z,42.05
2023-01-20T13:35:25.262Z,42.42
2023-01-20T13:37:59.978Z,40.97
2023-01-20T13:40:38.459Z,42.25
2023-01-20T13:43:23.893Z,42.63
2023-01-20T13:46:15.192Z,42.92
2023-01-20T13:49:13.467Z,42.46
2023-01-20T13:51:45.188Z,41.50
2023-01-20T13:54:29.116Z,42.55
2023-01-20T13:57:23.133Z,42.66
2023-01-20T13:59:50.398Z,41.23
2023-01-20T14:02:25.089Z,42.15
2023-01-20T14:04:52.995Z,40.82
2023-01-20T14:07:30.909Z,51.38
2023-01-20T14:10:00.410Z,49.72
2023-01-20T14:12:27.385Z,49.45
2023-01-20T14:14:54.750Z,48.53
2023-01-20T14:17:23.664Z,49.43
2023-01-20T14:19:53.921Z,44.71
2023-01-20T14:22:26.082Z,43.56
2023-01-20T14:24:59.971Z,42.46
2023-01-20T14:27:32.016Z,41.77
2023-01-20T14:30:14.476Z,42.87
2023-01-20T14:32:41.590Z,41.27
2023-01-20T14:35:28.139Z,42.25
2023-01-20T14:37:55.003Z,41.19
2023-01-20T14:40:31.161Z,42.20
2023-01-20T14:43:24.164Z,43.17
2023-01-20T14:45:52.144Z,41.59
2023-01-20T14:48:33.256Z,41.97
2023-01-20T14:51:04.190Z,41.76
2023-01-20T14:53:30.782Z,41.76
2023-01-20T14:56:02.997Z,42.41
2023-01-20T14:58:30.689Z,42.32
2023-01-20T15:01:01.929Z,42.91
2023-01-20T15:03:32.654Z,42.81
2023-01-20T15:06:22.543Z,44.06
2023-01-20T15:09:05.036Z,43.77
2023-01-20T15:11:33.517Z,43.53
2023-01-20T15:14:08.266Z,43.53
2023-01-20T15:16:38.848Z,43.77
2023-01-20T15:19:17.420Z,44.20
2023-01-20T15:21:56.997Z,43.87
2023-01-20T15:24:24.797Z,44.32
2023-01-20T15:26:53.829Z,44.26
2023-01-20T15:29:25.753Z,44.53
2023-01-20T15:31:53.638Z,44.43
2023-01-20T15:34:21.188Z,44.72
2023-01-20T15:36:49.030Z,44.86
2023-01-20T15:39:17.440Z,45.16
2023-01-20T15:41:45.179Z,45.28
2023-01-20T15:44:11.673Z,45.48
2023-01-20T15:46:39.967Z,45.67
2023-01-20T15:49:15.175Z,46.18
2023-01-20T15:51:42.731Z,46.41
2023-01-20T15:54:10.167Z,46.38
2023-01-20T15:56:39.528Z,46.62
2023-01-20T15:59:17.739Z,46.89
2023-01-20T16:01:50.212Z,46.90
2023-01-20T16:04:17.199Z,46.89
2023-01-20T16:06:44.127Z,46.85
2023-01-20T16:09:40.089Z,47.20
2023-01-20T16:12:10.392Z,47.09
2023-01-20T16:14:36.866Z,47.43
2023-01-20T16:17:03.370Z,47.13
2023-01-20T16:19:29.802Z,47.28
2023-01-20T16:21:56.256Z,47.58
2023-01-20T16:24:22.767Z,47.26
2023-01-20T16:26:49.304Z,47.63
2023-01-20T16:29:15.845Z,47.40
2023-01-20T16:31:42.378Z,47.44
2023-01-20T16:34:08.918Z,47.47
2023-01-20T16:36:35.381Z,47.85
2023-01-20T16:39:01.901Z,47.91
2023-01-20T16:41:30.973Z,47.67
2023-01-20T16:43:58.512Z,47.82
2023-01-20T16:46:27.583Z,48.16
2023-01-20T16:49:01.896Z,48.42
2023-01-20T16:51:29.627Z,48.38
2023-01-20T16:53:57.198Z,48.52
2023-01-20T16:56:29.640Z,48.60
2023-01-20T16:58:57.909Z,48.68
2023-01-20T17:01:25.706Z,48.34
2023-01-20T17:03:54.619Z,48.89
2023-01-20T17:06:23.746Z,48.66
2023-01-20T17:08:53.000Z,49.02
2023-01-20T17:11:34.281Z,48.90
2023-01-20T17:14:05.995Z,48.96
2023-01-20T17:16:33.284Z,49.02
2023-01-20T17:19:01.324Z,48.96
2023-01-20T17:21:30.017Z,49.10
2023-01-20T17:24:02.281Z,49.33
2023-01-20T17:26:29.560Z,49.36
2023-01-20T17:29:04.023Z,49.26
2023-01-20T17:31:36.585Z,49.69
2023-01-20T17:34:09.457Z,49.63
2023-01-20T17:36:36.097Z,49.72
2023-01-20T17:39:05.443Z,49.69
2023-01-20T17:41:32.928Z,49.73
2023-01-20T17:43:59.618Z,49.67
2023-01-20T17:46:29.574Z,49.57
2023-01-20T17:48:57.365Z,49.69
2023-01-20T17:51:26.184Z,49.85
2023-01-20T17:53:52.723Z,49.71
2023-01-20T17:56:21.403Z,49.72
2023-01-20T17:58:48.988Z,49.86
2023-01-20T18:01:24.410Z,49.80
2023-01-20T18:03:52.530Z,50.33
2023-01-20T18:06:21.680Z,50.60
2023-01-20T18:08:52.074Z,50.11
2023-01-20T18:11:22.959Z,50.19
2023-01-20T18:13:51.500Z,50.45
2023-01-20T18:16:20.225Z,50.18
2023-01-20T18:18:48.557Z,50.50
2023-01-20T18:21:17.571Z,50.64
2023-01-20T18:23:45.162Z,50.54
2023-01-20T18:26:13.976Z,50.48
2023-01-20T18:28:41.614Z,50.53
2023-01-20T18:31:14.340Z,50.79
2023-01-20T18:33:47.553Z,50.58
2023-01-20T18:36:25.078Z,50.87
2023-01-20T18:38:56.846Z,50.73
2023-01-20T18:41:24.715Z,50.57
2023-01-20T18:43:51.393Z,50.62
2023-01-20T18:46:18.696Z,50.69
2023-01-20T18:48:47.321Z,50.59
2023-01-20T18:51:16.057Z,50.55
2023-01-20T18:53:44.472Z,51.08
2023-01-20T18:56:13.797Z,51.13
2023-01-20T18:58:47.239Z,51.07
2023-01-20T19:01:16.917Z,51.09
2023-01-20T19:03:46.069Z,51.02
2023-01-20T19:06:16.407Z,51.03
2023-01-20T19:08:44.861Z,51.32
2023-01-20T19:11:17.769Z,50.99
2023-01-20T19:13:45.999Z,51.42
2023-01-20T19:16:13.251Z,51.51
2023-01-20T19:23:56.800Z,51.70
2023-01-20T19:26:24.904Z,51.46
2023-01-20T19:29:02.762Z,51.36
2023-01-20T19:31:38.278Z,51.26
2023-01-20T19:34:06.150Z,51.31
2023-01-20T19:36:33.183Z,51.25
2023-01-20T19:39:01.138Z,51.63
2023-01-20T19:41:35.928Z,51.58
2023-01-20T19:44:04.593Z,51.57
2023-01-20T19:46:34.212Z,51.31
2023-01-20T19:49:02.392Z,51.64
2023-01-20T19:51:29.255Z,51.46
2023-01-20T19:53:58.009Z,50.33
2023-01-20T19:56:26.414Z,51.15
2023-01-20T19:58:53.846Z,51.11
2023-01-20T20:01:21.527Z,51.09
2023-01-20T20:03:49.983Z,51.19
2023-01-20T20:06:28.642Z,51.21
2023-01-20T20:09:03.415Z,51.23
2023-01-20T20:11:30.712Z,51.71
2023-01-20T20:13:58.802Z,51.52
2023-01-20T20:16:27.613Z,51.34
2023-01-20T20:18:55.230Z,51.49
2023-01-20T20:21:22.139Z,51.26
2023-01-20T20:23:54.108Z,51.11
2023-01-20T20:26:22.689Z,51.21
2023-01-20T20:29:05.567Z,51.26
2023-01-20T20:31:34.316Z,51.46
2023-01-20T20:34:02.258Z,51.59
2023-01-20T20:36:30.939Z,51.49
2023-01-20T20:38:58.870Z,51.52
2023-01-20T20:41:29.117Z,51.56
2023-01-20T20:43:56.265Z,51.97
2023-01-20T20:46:22.797Z,51.90
2023-01-20T20:48:49.291Z,51.84
2023-01-20T20:51:16.871Z,51.66
2023-01-20T20:53:44.108Z,51.52
2023-01-20T20:56:13.377Z,51.89
2023-01-20T20:58:55.280Z,51.64
2023-01-20T21:01:26.849Z,51.62
2023-01-20T21:03:54.049Z,51.47
2023-01-20T21:06:22.697Z,51.49
2023-01-20T21:08:49.618Z,51.28
2023-01-20T21:11:16.151Z,51.26
2023-01-20T21:13:42.868Z,51.76
2023-01-20T21:16:14.390Z,51.72
2023-01-20T21:18:41.523Z,51.94
2023-01-20T21:21:12.007Z,51.94
2023-01-20T21:23:40.697Z,51.95
2023-01-20T21:26:10.355Z,52.31
2023-01-20T21:28:37.079Z,52.21
2023-01-20T21:31:09.092Z,52.17
2023-01-20T21:33:39.910Z,52.17
2023-01-20T21:36:09.048Z,51.93
2023-01-20T21:38:37.365Z,52.39
2023-01-20T21:41:10.076Z,52.18
2023-01-20T21:43:56.964Z,52.40
2023-01-20T21:46:24.399Z,52.14
2023-01-20T21:49:09.521Z,51.96
2023-01-20T21:51:54.557Z,52.20
2023-01-20T21:54:21.340Z,52.13
2023-01-20T21:56:48.607Z,51.24
2023-01-20T21:59:15.238Z,51.99
2023-01-20T22:01:41.801Z,52.58
2023-01-20T22:04:08.323Z,52.43
2023-01-20T22:06:34.918Z,52.24
2023-01-20T22:09:01.787Z,52.19
2023-01-20T22:11:28.487Z,51.04
2023-01-20T22:13:58.531Z,51.97
2023-01-20T22:16:25.753Z,52.25
2023-01-20T22:18:53.645Z,52.45
2023-01-20T22:21:22.293Z,52.29
2023-01-20T22:23:48.922Z,52.73
2023-01-20T22:26:15.458Z,52.50
2023-01-20T22:28:42.802Z,52.53
2023-01-20T22:31:17.249Z,52.73
2023-01-20T22:33:43.827Z,52.64
2023-01-20T22:36:10.381Z,52.49
2023-01-20T22:38:36.866Z,52.30
2023-01-20T22:41:08.414Z,52.76
2023-01-20T22:43:35.412Z,52.56
2023-01-20T22:46:03.066Z,52.22
2023-01-20T22:48:32.051Z,52.27
2023-01-20T22:51:04.861Z,52.10
2023-01-20T22:53:31.531Z,51.85
2023-01-20T22:56:06.087Z,51.52
2023-01-20T22:58:32.963Z,51.66
2023-01-20T23:00:59.881Z,51.15
2023-01-20T23:03:26.914Z,52.05
2023-01-20T23:05:56.952Z,51.85
2023-01-20T23:08:27.910Z,52.12
2023-01-20T23:11:02.373Z,52.38
2023-01-20T23:13:31.792Z,52.61
2023-01-20T23:15:58.280Z,52.89
2023-01-20T23:18:25.463Z,52.70
2023-01-20T23:20:54.013Z,52.86
2023-01-20T23:23:21.892Z,53.21
2023-01-20T23:25:48.459Z,52.57
2023-01-20T23:28:15.504Z,52.96
2023-01-20T23:30:42.591Z,52.93
2023-01-20T23:33:10.056Z,52.89
2023-01-20T23:35:39.096Z,53.00
2023-01-20T23:38:09.260Z,52.67
2023-01-20T23:40:36.355Z,52.85
2023-01-20T23:43:02.955Z,52.54
2023-01-20T23:45:29.523Z,52.58
2023-01-20T23:47:56.142Z,52.52
2023-01-20T23:50:22.858Z,52.43
2023-01-20T23:52:49.367Z,52.68
2023-01-20T23:55:16.079Z,52.84
2023-01-20T23:57:42.584Z,52.60
